Snow/Ice From: 17-12-2017 10:00 Until: 18-12-2017 06:00 warning for: Snow/Ice Level: Yellow info button

Although rather usual in this region, locally or potentially dangerous phenomena are expected. (such as local winds, summer thunderstorms, rising streams or high waves) Be aware and pay attention to the latest weather updates, especially if you carry out activities exposed to weather or close to a stream or shoreline. 


Meteo18 Weather Cam more information Meteo18 Weather Cam


Thunder radar more information blitzortung!


warning for Snow/Ice more information rain snow radar


Visit our other weather sites:

Template documentation
and downloads

And another site



Weather Underground History page Text

Daily Summary for October 22, 2017 Units:  Both    English   Metric
« Previous Day
Next Day »
Daily Weekly Monthly Yearly Custom
  High: Low: Average:
Temperature: 55 °F /  12.8 °C 45.7 °F /  7.6 °C 49.5 °F /  9.7 °C
Dew Point: 45.7 °F /  7.6 °C 41.5 °F /  5.3 °C 44.4 °F /  6.9 °C
Humidity: 92 % 61 % 83 %
Wind Speed: 17 mph /  27.4 km/h - 6.1 mph /  9.8 km/h
Wind Gust: 28 mph /  45.1 km/h - -
Wind:- - WSW
Pressure: 30.3 in /  1025.3 hPa 30.2 in /  1021.2 hPa -
Precipitation: 0.02 in /  0.5 mm    
Historical Graphs
 
 
Tabular Data for October 22, 2017
Time Temperature Dew Point Pressure Wind Wind Speed Wind Gust Humidity Rainfall Rate (Hourly)
00:02 50.4 °F /  10.2 °C 45.7 °F /  7.6 °C 30.2 in /  1021.2 hPa SW 9 mph /  14.5 km/h 15 mph /  24.1 km/h 84 % 0 in /  0.0 mm
00:12 50.4 °F /  10.2 °C 45.7 °F /  7.6 °C 30.2 in /  1021.2 hPa WSW 5 mph /  8.0 km/h 14 mph /  22.5 km/h 84 % 0 in /  0.0 mm
00:17 50.4 °F /  10.2 °C 45.7 °F /  7.6 °C 30.2 in /  1021.6 hPa WSW 5 mph /  8.0 km/h 14 mph /  22.5 km/h 84 % 0 in /  0.0 mm
00:22 50.4 °F /  10.2 °C 45.7 °F /  7.6 °C 30.2 in /  1021.6 hPa SSW 9 mph /  14.5 km/h 14 mph /  22.5 km/h 84 % 0 in /  0.0 mm
00:27 50.2 °F /  10.1 °C 45.5 °F /  7.5 °C 30.2 in /  1021.6 hPa SW 6 mph /  9.7 km/h 14 mph /  22.5 km/h 84 % 0 in /  0.0 mm
00:32 50.2 °F /  10.1 °C 45.5 °F /  7.5 °C 30.2 in /  1021.6 hPa SW 6 mph /  9.7 km/h 13 mph /  20.9 km/h 84 % 0 in /  0.0 mm
00:37 50 °F /  10.0 °C 45.3 °F /  7.4 °C 30.2 in /  1021.6 hPa WSW 9 mph /  14.5 km/h 13 mph /  20.9 km/h 84 % 0 in /  0.0 mm
00:42 49.8 °F /  9.9 °C 45.5 °F /  7.5 °C 30.2 in /  1021.6 hPa WSW 12 mph /  19.3 km/h 14 mph /  22.5 km/h 85 % 0 in /  0.0 mm
00:47 49.8 °F /  9.9 °C 45.5 °F /  7.5 °C 30.2 in /  1021.6 hPa SSW 3 mph /  4.8 km/h 14 mph /  22.5 km/h 85 % 0 in /  0.0 mm
00:52 49.8 °F /  9.9 °C 45.5 °F /  7.5 °C 30.2 in /  1021.6 hPa SW 6 mph /  9.7 km/h 14 mph /  22.5 km/h 85 % 0 in /  0.0 mm
00:57 49.6 °F /  9.8 °C 45.3 °F /  7.4 °C 30.2 in /  1021.6 hPa SW 9 mph /  14.5 km/h 14 mph /  22.5 km/h 85 % 0 in /  0.0 mm
01:02 49.6 °F /  9.8 °C 45.3 °F /  7.4 °C 30.2 in /  1021.6 hPa SW 6 mph /  9.7 km/h 14 mph /  22.5 km/h 85 % 0 in /  0.0 mm
01:12 49.3 °F /  9.6 °C 45.3 °F /  7.4 °C 30.2 in /  1021.6 hPa SW 10 mph /  16.1 km/h 12 mph /  19.3 km/h 86 % 0 in /  0.0 mm
01:17 49.1 °F /  9.5 °C 45.1 °F /  7.3 °C 30.2 in /  1021.6 hPa SW 10 mph /  16.1 km/h 13 mph /  20.9 km/h 86 % 0 in /  0.0 mm
01:22 48.9 °F /  9.4 °C 45.1 °F /  7.3 °C 30.2 in /  1021.6 hPa WSW 6 mph /  9.7 km/h 13 mph /  20.9 km/h 87 % 0 in /  0.0 mm
01:32 48.7 °F /  9.3 °C 45 °F /  7.2 °C 30.2 in /  1021.6 hPa South 6 mph /  9.7 km/h 13 mph /  20.9 km/h 87 % 0 in /  0.0 mm
01:37 48.7 °F /  9.3 °C 45.3 °F /  7.4 °C 30.2 in /  1021.9 hPa SW 7 mph /  11.3 km/h 13 mph /  20.9 km/h 88 % 0 in /  0.0 mm
01:42 48.7 °F /  9.3 °C 45.3 °F /  7.4 °C 30.2 in /  1021.9 hPa SSW 6 mph /  9.7 km/h 13 mph /  20.9 km/h 88 % 0 in /  0.0 mm
01:47 48.6 °F /  9.2 °C 45.1 °F /  7.3 °C 30.2 in /  1021.9 hPa WSW 4 mph /  6.4 km/h 12 mph /  19.3 km/h 88 % 0 in /  0.0 mm
01:52 48.6 °F /  9.2 °C 45.1 °F /  7.3 °C 30.2 in /  1021.9 hPa SW 8 mph /  12.9 km/h 12 mph /  19.3 km/h 88 % 0 in /  0.0 mm
02:02 48.4 °F /  9.1 °C 45 °F /  7.2 °C 30.2 in /  1021.9 hPa WSW 10 mph /  16.1 km/h 12 mph /  19.3 km/h 88 % 0 in /  0.0 mm
02:07 48.4 °F /  9.1 °C 45 °F /  7.2 °C 30.2 in /  1021.9 hPa WSW 3 mph /  4.8 km/h 12 mph /  19.3 km/h 88 % 0 in /  0.0 mm
02:12 48.2 °F /  9.0 °C 44.8 °F /  7.1 °C 30.2 in /  1021.9 hPa SW 5 mph /  8.0 km/h 12 mph /  19.3 km/h 88 % 0 in /  0.0 mm
02:17 47.8 °F /  8.8 °C 44.8 °F /  7.1 °C 30.2 in /  1021.9 hPa WSW 6 mph /  9.7 km/h 12 mph /  19.3 km/h 89 % 0 in /  0.0 mm
02:22 47.8 °F /  8.8 °C 44.8 °F /  7.1 °C 30.2 in /  1021.6 hPa SW 5 mph /  8.0 km/h 11 mph /  17.7 km/h 89 % 0 in /  0.0 mm
02:32 47.7 °F /  8.7 °C 44.6 °F /  7.0 °C 30.2 in /  1021.9 hPa SW 6 mph /  9.7 km/h 11 mph /  17.7 km/h 89 % 0 in /  0.0 mm
02:42 47.7 °F /  8.7 °C 44.6 °F /  7.0 °C 30.2 in /  1021.9 hPa SW 3 mph /  4.8 km/h 10 mph /  16.1 km/h 89 % 0 in /  0.0 mm
02:52 47.7 °F /  8.7 °C 44.6 °F /  7.0 °C 30.2 in /  1021.9 hPa WSW 8 mph /  12.9 km/h 10 mph /  16.1 km/h 89 % 0 in /  0.0 mm
02:57 47.7 °F /  8.7 °C 44.6 °F /  7.0 °C 30.2 in /  1021.9 hPa WSW 3 mph /  4.8 km/h 14 mph /  22.5 km/h 89 % 0 in /  0.0 mm
03:02 47.5 °F /  8.6 °C 44.4 °F /  6.9 °C 30.2 in /  1021.9 hPa SW 8 mph /  12.9 km/h 14 mph /  22.5 km/h 89 % 0 in /  0.0 mm
03:12 47.5 °F /  8.6 °C 44.4 °F /  6.9 °C 30.2 in /  1021.9 hPa SSW 3 mph /  4.8 km/h 13 mph /  20.9 km/h 89 % 0 in /  0.0 mm
03:17 47.3 °F /  8.5 °C 44.2 °F /  6.8 °C 30.2 in /  1021.9 hPa WSW 5 mph /  8.0 km/h 13 mph /  20.9 km/h 89 % 0 in /  0.0 mm
03:22 47.3 °F /  8.5 °C 44.2 °F /  6.8 °C 30.2 in /  1021.9 hPa SW 4 mph /  6.4 km/h 13 mph /  20.9 km/h 89 % 0 in /  0.0 mm
03:32 47.1 °F /  8.4 °C 44.1 °F /  6.7 °C 30.2 in /  1021.9 hPa SW 7 mph /  11.3 km/h 9 mph /  14.5 km/h 89 % 0 in /  0.0 mm
03:42 46.6 °F /  8.1 °C 43.9 °F /  6.6 °C 30.2 in /  1021.9 hPa SW 5 mph /  8.0 km/h 8 mph /  12.9 km/h 90 % 0 in /  0.0 mm
03:52 46 °F /  7.8 °C 43.3 °F /  6.3 °C 30.2 in /  1021.9 hPa SSW 3 mph /  4.8 km/h 7 mph /  11.3 km/h 90 % 0 in /  0.0 mm
04:02 46 °F /  7.8 °C 43.5 °F /  6.4 °C 30.2 in /  1021.6 hPa SW 3 mph /  4.8 km/h 8 mph /  12.9 km/h 91 % 0 in /  0.0 mm
04:12 46 °F /  7.8 °C 43.5 °F /  6.4 °C 30.2 in /  1021.6 hPa SSW 3 mph /  4.8 km/h 11 mph /  17.7 km/h 91 % 0 in /  0.0 mm
04:17 45.9 °F /  7.7 °C 43.3 °F /  6.3 °C 30.2 in /  1021.6 hPa SW 3 mph /  4.8 km/h 11 mph /  17.7 km/h 91 % 0 in /  0.0 mm
04:32 45.9 °F /  7.7 °C 43.3 °F /  6.3 °C 30.2 in /  1021.6 hPa SW 3 mph /  4.8 km/h 11 mph /  17.7 km/h 91 % 0 in /  0.0 mm
04:37 46 °F /  7.8 °C 43.9 °F /  6.6 °C 30.2 in /  1021.6 hPa SW 8 mph /  12.9 km/h 9 mph /  14.5 km/h 92 % 0 in /  0.0 mm
04:42 46.2 °F /  7.9 °C 43.7 °F /  6.5 °C 30.2 in /  1021.6 hPa WSW 5 mph /  8.0 km/h 9 mph /  14.5 km/h 91 % 0 in /  0.0 mm
04:52 46.4 °F /  8.0 °C 43.9 °F /  6.6 °C 30.2 in /  1021.6 hPa SW 4 mph /  6.4 km/h 9 mph /  14.5 km/h 91 % 0 in /  0.0 mm
05:02 46.4 °F /  8.0 °C 43.9 °F /  6.6 °C 30.2 in /  1021.6 hPa SW 5 mph /  8.0 km/h 8 mph /  12.9 km/h 91 % 0 in /  0.0 mm
05:07 46.4 °F /  8.0 °C 43.9 °F /  6.6 °C 30.2 in /  1021.6 hPa SW 8 mph /  12.9 km/h 9 mph /  14.5 km/h 91 % 0 in /  0.0 mm
05:22 46.2 °F /  7.9 °C 43.7 °F /  6.5 °C 30.2 in /  1021.6 hPa SW 6 mph /  9.7 km/h 9 mph /  14.5 km/h 91 % 0 in /  0.0 mm
05:32 46.2 °F /  7.9 °C 43.7 °F /  6.5 °C 30.2 in /  1021.6 hPa WSW 4 mph /  6.4 km/h 7 mph /  11.3 km/h 91 % 0 in /  0.0 mm
05:37 46.2 °F /  7.9 °C 43.7 °F /  6.5 °C 30.2 in /  1021.6 hPa WSW 4 mph /  6.4 km/h 10 mph /  16.1 km/h 91 % 0 in /  0.0 mm
05:42 46.2 °F /  7.9 °C 43.7 °F /  6.5 °C 30.2 in /  1021.6 hPa SW 6 mph /  9.7 km/h 10 mph /  16.1 km/h 91 % 0 in /  0.0 mm
05:47 46.2 °F /  7.9 °C 43.7 °F /  6.5 °C 30.2 in /  1021.6 hPa SSW 2 mph /  3.2 km/h 11 mph /  17.7 km/h 91 % 0 in /  0.0 mm
05:52 46.2 °F /  7.9 °C 43.7 °F /  6.5 °C 30.2 in /  1021.6 hPa SW 7 mph /  11.3 km/h 11 mph /  17.7 km/h 91 % 0 in /  0.0 mm
05:57 46.2 °F /  7.9 °C 43.7 °F /  6.5 °C 30.2 in /  1021.6 hPa SW 6 mph /  9.7 km/h 11 mph /  17.7 km/h 91 % 0 in /  0.0 mm
06:02 46.2 °F /  7.9 °C 43.7 °F /  6.5 °C 30.2 in /  1021.6 hPa WSW 3 mph /  4.8 km/h 11 mph /  17.7 km/h 91 % 0 in /  0.0 mm
06:12 46 °F /  7.8 °C 43.5 °F /  6.4 °C 30.2 in /  1021.6 hPa SW 8 mph /  12.9 km/h 10 mph /  16.1 km/h 91 % 0 in /  0.0 mm
06:17 46 °F /  7.8 °C 43.5 °F /  6.4 °C 30.2 in /  1021.6 hPa SSW 9 mph /  14.5 km/h 10 mph /  16.1 km/h 91 % 0 in /  0.0 mm
06:22 46 °F /  7.8 °C 43.5 °F /  6.4 °C 30.2 in /  1021.9 hPa WSW 5 mph /  8.0 km/h 10 mph /  16.1 km/h 91 % 0 in /  0.0 mm
06:32 45.9 °F /  7.7 °C 43.7 °F /  6.5 °C 30.2 in /  1021.6 hPa SW 3 mph /  4.8 km/h 10 mph /  16.1 km/h 92 % 0 in /  0.0 mm
06:42 45.9 °F /  7.7 °C 43.7 °F /  6.5 °C 30.2 in /  1021.6 hPa SW 7 mph /  11.3 km/h 10 mph /  16.1 km/h 92 % 0 in /  0.0 mm
06:47 45.9 °F /  7.7 °C 43.7 °F /  6.5 °C 30.2 in /  1021.6 hPa SW 7 mph /  11.3 km/h 11 mph /  17.7 km/h 92 % 0 in /  0.0 mm
06:52 45.9 °F /  7.7 °C 43.7 °F /  6.5 °C 30.2 in /  1021.6 hPa SW 7 mph /  11.3 km/h 11 mph /  17.7 km/h 92 % 0 in /  0.0 mm
07:02 46 °F /  7.8 °C 43.5 °F /  6.4 °C 30.2 in /  1021.6 hPa West 5 mph /  8.0 km/h 12 mph /  19.3 km/h 91 % 0 in /  0.0 mm
07:12 46.2 °F /  7.9 °C 43.7 °F /  6.5 °C 30.2 in /  1021.9 hPa WSW 6 mph /  9.7 km/h 12 mph /  19.3 km/h 91 % 0 in /  0.0 mm
07:17 46.2 °F /  7.9 °C 43.7 °F /  6.5 °C 30.2 in /  1021.9 hPa SW 8 mph /  12.9 km/h 12 mph /  19.3 km/h 91 % 0 in /  0.0 mm
07:22 46.4 °F /  8.0 °C 43.9 °F /  6.6 °C 30.2 in /  1021.9 hPa SW 5 mph /  8.0 km/h 12 mph /  19.3 km/h 91 % 0 in /  0.0 mm
07:32 46.4 °F /  8.0 °C 43.9 °F /  6.6 °C 30.2 in /  1021.6 hPa West 6 mph /  9.7 km/h 12 mph /  19.3 km/h 91 % 0 in /  0.0 mm
07:42 46.2 °F /  7.9 °C 43.5 °F /  6.4 °C 30.2 in /  1021.9 hPa West 6 mph /  9.7 km/h 12 mph /  19.3 km/h 90 % 0 in /  0.0 mm
07:47 46.2 °F /  7.9 °C 43.5 °F /  6.4 °C 30.2 in /  1021.9 hPa SW 6 mph /  9.7 km/h 15 mph /  24.1 km/h 90 % 0 in /  0.0 mm
07:52 46.2 °F /  7.9 °C 43.5 °F /  6.4 °C 30.2 in /  1021.9 hPa WSW 3 mph /  4.8 km/h 15 mph /  24.1 km/h 90 % 0 in /  0.0 mm
08:02 46 °F /  7.8 °C 43.3 °F /  6.3 °C 30.2 in /  1021.9 hPa SW 8 mph /  12.9 km/h 15 mph /  24.1 km/h 90 % 0 in /  0.0 mm
08:12 46 °F /  7.8 °C 43.3 °F /  6.3 °C 30.2 in /  1021.9 hPa WSW 8 mph /  12.9 km/h 16 mph /  25.7 km/h 90 % 0 in /  0.0 mm
08:17 45.9 °F /  7.7 °C 43.2 °F /  6.2 °C 30.2 in /  1021.9 hPa SW 7 mph /  11.3 km/h 16 mph /  25.7 km/h 90 % 0 in /  0.0 mm
08:22 45.9 °F /  7.7 °C 43.3 °F /  6.3 °C 30.2 in /  1021.9 hPa WSW 6 mph /  9.7 km/h 16 mph /  25.7 km/h 91 % 0 in /  0.0 mm
08:32 45.7 °F /  7.6 °C 43.2 °F /  6.2 °C 30.2 in /  1022.2 hPa WSW 7 mph /  11.3 km/h 13 mph /  20.9 km/h 91 % 0 in /  0.0 mm
08:42 45.7 °F /  7.6 °C 43.2 °F /  6.2 °C 30.2 in /  1022.2 hPa West 6 mph /  9.7 km/h 13 mph /  20.9 km/h 91 % 0 in /  0.0 mm
08:52 45.7 °F /  7.6 °C 43.2 °F /  6.2 °C 30.2 in /  1022.2 hPa WSW 5 mph /  8.0 km/h 13 mph /  20.9 km/h 91 % 0 in /  0.0 mm
09:02 45.7 °F /  7.6 °C 43.2 °F /  6.2 °C 30.2 in /  1022.2 hPa West 9 mph /  14.5 km/h 12 mph /  19.3 km/h 91 % 0 in /  0.0 mm
09:12 45.9 °F /  7.7 °C 43.3 °F /  6.3 °C 30.2 in /  1022.6 hPa West 6 mph /  9.7 km/h 12 mph /  19.3 km/h 91 % 0 in /  0.0 mm
09:17 46 °F /  7.8 °C 43.3 °F /  6.3 °C 30.2 in /  1022.6 hPa West 5 mph /  8.0 km/h 12 mph /  19.3 km/h 90 % 0 in /  0.0 mm
09:22 46.2 °F /  7.9 °C 43.5 °F /  6.4 °C 30.2 in /  1022.6 hPa WSW 8 mph /  12.9 km/h 12 mph /  19.3 km/h 90 % 0 in /  0.0 mm
09:27 46.4 °F /  8.0 °C 43.7 °F /  6.5 °C 30.2 in /  1022.6 hPa SW 8 mph /  12.9 km/h 12 mph /  19.3 km/h 90 % 0 in /  0.0 mm
09:32 46.6 °F /  8.1 °C 43.9 °F /  6.6 °C 30.2 in /  1022.6 hPa WSW 6 mph /  9.7 km/h 12 mph /  19.3 km/h 90 % 0 in /  0.0 mm
09:42 46.8 °F /  8.2 °C 44.1 °F /  6.7 °C 30.2 in /  1022.6 hPa SW 7 mph /  11.3 km/h 12 mph /  19.3 km/h 90 % 0 in /  0.0 mm
09:47 46.9 °F /  8.3 °C 43.9 °F /  6.6 °C 30.2 in /  1022.6 hPa SW 10 mph /  16.1 km/h 12 mph /  19.3 km/h 89 % 0 in /  0.0 mm
09:52 47.1 °F /  8.4 °C 44.1 °F /  6.7 °C 30.2 in /  1022.6 hPa WSW 10 mph /  16.1 km/h 12 mph /  19.3 km/h 89 % 0 in /  0.0 mm
09:57 47.5 °F /  8.6 °C 44.1 °F /  6.7 °C 30.2 in /  1022.6 hPa WSW 9 mph /  14.5 km/h 15 mph /  24.1 km/h 88 % 0 in /  0.0 mm
10:07 47.8 °F /  8.8 °C 44.2 °F /  6.8 °C 30.2 in /  1022.6 hPa West 5 mph /  8.0 km/h 16 mph /  25.7 km/h 87 % 0 in /  0.0 mm
10:12 48.2 °F /  9.0 °C 44.2 °F /  6.8 °C 30.2 in /  1022.6 hPa WSW 6 mph /  9.7 km/h 16 mph /  25.7 km/h 86 % 0 in /  0.0 mm
10:17 48.4 °F /  9.1 °C 44.4 °F /  6.9 °C 30.2 in /  1022.6 hPa West 14 mph /  22.5 km/h 18 mph /  29.0 km/h 86 % 0 in /  0.0 mm
10:22 48.6 °F /  9.2 °C 44.6 °F /  7.0 °C 30.2 in /  1022.6 hPa West 5 mph /  8.0 km/h 18 mph /  29.0 km/h 86 % 0 in /  0.0 mm
10:32 48.7 °F /  9.3 °C 44.4 °F /  6.9 °C 30.2 in /  1022.6 hPa WSW 9 mph /  14.5 km/h 18 mph /  29.0 km/h 85 % 0 in /  0.0 mm
10:42 49.3 °F /  9.6 °C 44.6 °F /  7.0 °C 30.2 in /  1022.6 hPa WSW 6 mph /  9.7 km/h 15 mph /  24.1 km/h 84 % 0 in /  0.0 mm
10:47 49.5 °F /  9.7 °C 44.8 °F /  7.1 °C 30.2 in /  1022.6 hPa West 12 mph /  19.3 km/h 15 mph /  24.1 km/h 84 % 0 in /  0.0 mm
10:52 49.5 °F /  9.7 °C 44.6 °F /  7.0 °C 30.2 in /  1022.6 hPa West 7 mph /  11.3 km/h 15 mph /  24.1 km/h 83 % 0 in /  0.0 mm
11:02 49.8 °F /  9.9 °C 44.8 °F /  7.1 °C 30.2 in /  1022.6 hPa WSW 9 mph /  14.5 km/h 17 mph /  27.4 km/h 83 % 0 in /  0.0 mm
11:12 50.4 °F /  10.2 °C 45.3 °F /  7.4 °C 30.2 in /  1022.2 hPa WSW 5 mph /  8.0 km/h 17 mph /  27.4 km/h 83 % 0 in /  0.0 mm
11:17 50.4 °F /  10.2 °C 44.8 °F /  7.1 °C 30.2 in /  1022.6 hPa WNW 7 mph /  11.3 km/h 15 mph /  24.1 km/h 81 % 0 in /  0.0 mm
11:22 50.5 °F /  10.3 °C 45 °F /  7.2 °C 30.2 in /  1022.6 hPa WSW 8 mph /  12.9 km/h 15 mph /  24.1 km/h 81 % 0 in /  0.0 mm
11:32 50.9 °F /  10.5 °C 45.3 °F /  7.4 °C 30.2 in /  1022.6 hPa WSW 9 mph /  14.5 km/h 16 mph /  25.7 km/h 81 % 0 in /  0.0 mm
11:37 50.9 °F /  10.5 °C 44.6 °F /  7.0 °C 30.2 in /  1022.6 hPa WSW 10 mph /  16.1 km/h 16 mph /  25.7 km/h 79 % 0 in /  0.0 mm
11:42 51.3 °F /  10.7 °C 45.3 °F /  7.4 °C 30.2 in /  1022.6 hPa West 2 mph /  3.2 km/h 16 mph /  25.7 km/h 80 % 0 in /  0.0 mm
11:47 51.4 °F /  10.8 °C 45.1 °F /  7.3 °C 30.2 in /  1022.6 hPa WNW 8 mph /  12.9 km/h 17 mph /  27.4 km/h 79 % 0 in /  0.0 mm
11:52 51.6 °F /  10.9 °C 45 °F /  7.2 °C 30.2 in /  1022.6 hPa West 6 mph /  9.7 km/h 17 mph /  27.4 km/h 78 % 0 in /  0.0 mm
11:57 51.8 °F /  11.0 °C 45.1 °F /  7.3 °C 30.2 in /  1022.6 hPa West 8 mph /  12.9 km/h 16 mph /  25.7 km/h 78 % 0 in /  0.0 mm
12:07 52 °F /  11.1 °C 44.6 °F /  7.0 °C 30.2 in /  1022.6 hPa WSW 4 mph /  6.4 km/h 16 mph /  25.7 km/h 76 % 0 in /  0.0 mm
12:12 52.3 °F /  11.3 °C 45 °F /  7.2 °C 30.2 in /  1022.6 hPa West 9 mph /  14.5 km/h 16 mph /  25.7 km/h 76 % 0 in /  0.0 mm
12:17 52.5 °F /  11.4 °C 45.1 °F /  7.3 °C 30.2 in /  1022.6 hPa West 9 mph /  14.5 km/h 16 mph /  25.7 km/h 76 % 0 in /  0.0 mm
12:22 52.5 °F /  11.4 °C 45.5 °F /  7.5 °C 30.2 in /  1022.6 hPa WSW 7 mph /  11.3 km/h 16 mph /  25.7 km/h 77 % 0 in /  0.0 mm
12:27 52.3 °F /  11.3 °C 43.9 °F /  6.6 °C 30.2 in /  1022.6 hPa WSW 11 mph /  17.7 km/h 17 mph /  27.4 km/h 73 % 0 in /  0.0 mm
12:42 53.6 °F /  12.0 °C 45.1 °F /  7.3 °C 30.2 in /  1022.6 hPa West 10 mph /  16.1 km/h 16 mph /  25.7 km/h 73 % 0 in /  0.0 mm
12:52 54 °F /  12.2 °C 45.1 °F /  7.3 °C 30.2 in /  1022.2 hPa SW 15 mph /  24.1 km/h 19 mph /  30.6 km/h 72 % 0 in /  0.0 mm
12:57 53.6 °F /  12.0 °C 44.1 °F /  6.7 °C 30.2 in /  1022.2 hPa WNW 11 mph /  17.7 km/h 19 mph /  30.6 km/h 70 % 0 in /  0.0 mm
13:02 54 °F /  12.2 °C 44.1 °F /  6.7 °C 30.2 in /  1022.2 hPa West 14 mph /  22.5 km/h 19 mph /  30.6 km/h 69 % 0 in /  0.0 mm
13:12 54.3 °F /  12.4 °C 44.4 °F /  6.9 °C 30.2 in /  1022.2 hPa West 13 mph /  20.9 km/h 24 mph /  38.6 km/h 69 % 0 in /  0.0 mm
13:17 54.1 °F /  12.3 °C 43.3 °F /  6.3 °C 30.2 in /  1022.2 hPa NW 17 mph /  27.4 km/h 24 mph /  38.6 km/h 67 % 0 in /  0.0 mm
13:22 54 °F /  12.2 °C 43.7 °F /  6.5 °C 30.2 in /  1022.2 hPa WSW 6 mph /  9.7 km/h 24 mph /  38.6 km/h 68 % 0 in /  0.0 mm
13:32 53.4 °F /  11.9 °C 43.9 °F /  6.6 °C 30.2 in /  1022.2 hPa West 6 mph /  9.7 km/h 21 mph /  33.8 km/h 70 % 0 in /  0.0 mm
13:37 53.2 °F /  11.8 °C 43.7 °F /  6.5 °C 30.2 in /  1022.2 hPa WSW 8 mph /  12.9 km/h 17 mph /  27.4 km/h 70 % 0 in /  0.0 mm
13:42 53.4 °F /  11.9 °C 43.5 °F /  6.4 °C 30.2 in /  1022.2 hPa West 5 mph /  8.0 km/h 17 mph /  27.4 km/h 69 % 0 in /  0.0 mm
13:47 53.4 °F /  11.9 °C 43.5 °F /  6.4 °C 30.2 in /  1022.2 hPa WNW 10 mph /  16.1 km/h 14 mph /  22.5 km/h 69 % 0 in /  0.0 mm
13:57 53.1 °F /  11.7 °C 43.9 °F /  6.6 °C 30.2 in /  1022.2 hPa WSW 6 mph /  9.7 km/h 18 mph /  29.0 km/h 71 % 0 in /  0.0 mm
14:02 53.1 °F /  11.7 °C 43.2 °F /  6.2 °C 30.2 in /  1022.2 hPa WNW 6 mph /  9.7 km/h 18 mph /  29.0 km/h 69 % 0 in /  0.0 mm
14:12 54 °F /  12.2 °C 43.7 °F /  6.5 °C 30.2 in /  1022.2 hPa WSW 9 mph /  14.5 km/h 15 mph /  24.1 km/h 68 % 0 in /  0.0 mm
14:17 54.1 °F /  12.3 °C 43.9 °F /  6.6 °C 30.2 in /  1021.9 hPa WNW 6 mph /  9.7 km/h 13 mph /  20.9 km/h 68 % 0 in /  0.0 mm
14:22 54.1 °F /  12.3 °C 43.3 °F /  6.3 °C 30.2 in /  1021.9 hPa WNW 4 mph /  6.4 km/h 13 mph /  20.9 km/h 67 % 0 in /  0.0 mm
14:27 54.9 °F /  12.7 °C 43.3 °F /  6.3 °C 30.2 in /  1021.9 hPa West 13 mph /  20.9 km/h 16 mph /  25.7 km/h 65 % 0 in /  0.0 mm
14:32 54.7 °F /  12.6 °C 42.3 °F /  5.7 °C 30.2 in /  1021.9 hPa SW 16 mph /  25.7 km/h 16 mph /  25.7 km/h 63 % 0 in /  0.0 mm
14:42 54.7 °F /  12.6 °C 41.5 °F /  5.3 °C 30.2 in /  1021.9 hPa WSW 8 mph /  12.9 km/h 20 mph /  32.2 km/h 61 % 0 in /  0.0 mm
14:47 54.9 °F /  12.7 °C 42.1 °F /  5.6 °C 30.2 in /  1021.9 hPa West 7 mph /  11.3 km/h 21 mph /  33.8 km/h 62 % 0 in /  0.0 mm
14:52 54.7 °F /  12.6 °C 41.9 °F /  5.5 °C 30.2 in /  1021.9 hPa West 16 mph /  25.7 km/h 21 mph /  33.8 km/h 62 % 0 in /  0.0 mm
15:02 54.7 °F /  12.6 °C 42.8 °F /  6.0 °C 30.2 in /  1021.9 hPa WNW 4 mph /  6.4 km/h 24 mph /  38.6 km/h 64 % 0 in /  0.0 mm
15:07 55 °F /  12.8 °C 43.2 °F /  6.2 °C 30.2 in /  1021.9 hPa West 9 mph /  14.5 km/h 18 mph /  29.0 km/h 64 % 0 in /  0.0 mm
15:12 54.7 °F /  12.6 °C 42.3 °F /  5.7 °C 30.2 in /  1021.9 hPa West 16 mph /  25.7 km/h 18 mph /  29.0 km/h 63 % 0 in /  0.0 mm
15:17 52.7 °F /  11.5 °C 43.2 °F /  6.2 °C 30.2 in /  1022.2 hPa West 8 mph /  12.9 km/h 28 mph /  45.1 km/h 70 % 0 in /  0.0 mm
15:22 52.3 °F /  11.3 °C 43.5 °F /  6.4 °C 30.2 in /  1021.9 hPa WNW 11 mph /  17.7 km/h 28 mph /  45.1 km/h 72 % 0 in /  0.0 mm
15:32 52.9 °F /  11.6 °C 43 °F /  6.1 °C 30.2 in /  1021.9 hPa NW 6 mph /  9.7 km/h 25 mph /  40.2 km/h 69 % 0 in /  0.0 mm
15:37 53.4 °F /  11.9 °C 43.5 °F /  6.4 °C 30.2 in /  1021.9 hPa WSW 9 mph /  14.5 km/h 16 mph /  25.7 km/h 69 % 0 in /  0.0 mm
15:42 53.2 °F /  11.8 °C 43.3 °F /  6.3 °C 30.2 in /  1021.9 hPa West 7 mph /  11.3 km/h 16 mph /  25.7 km/h 69 % 0 in /  0.0 mm
15:47 53.2 °F /  11.8 °C 43.7 °F /  6.5 °C 30.2 in /  1021.9 hPa West 5 mph /  8.0 km/h 12 mph /  19.3 km/h 70 % 0 in /  0.0 mm
15:52 53.8 °F /  12.1 °C 44.2 °F /  6.8 °C 30.2 in /  1021.9 hPa WNW 5 mph /  8.0 km/h 12 mph /  19.3 km/h 70 % 0 in /  0.0 mm
15:57 54 °F /  12.2 °C 43.7 °F /  6.5 °C 30.2 in /  1022.2 hPa West 11 mph /  17.7 km/h 12 mph /  19.3 km/h 68 % 0 in /  0.0 mm
16:02 54 °F /  12.2 °C 43.7 °F /  6.5 °C 30.2 in /  1022.2 hPa WSW 11 mph /  17.7 km/h 12 mph /  19.3 km/h 68 % 0 in /  0.0 mm
16:07 54 °F /  12.2 °C 43.7 °F /  6.5 °C 30.2 in /  1022.2 hPa West 8 mph /  12.9 km/h 16 mph /  25.7 km/h 68 % 0 in /  0.0 mm
16:12 53.8 °F /  12.1 °C 43.5 °F /  6.4 °C 30.2 in /  1022.2 hPa West 7 mph /  11.3 km/h 16 mph /  25.7 km/h 68 % 0 in /  0.0 mm
16:17 53.8 °F /  12.1 °C 43.5 °F /  6.4 °C 30.2 in /  1021.9 hPa NW 9 mph /  14.5 km/h 16 mph /  25.7 km/h 68 % 0 in /  0.0 mm
16:22 53.8 °F /  12.1 °C 43.5 °F /  6.4 °C 30.2 in /  1021.9 hPa NW 3 mph /  4.8 km/h 16 mph /  25.7 km/h 68 % 0 in /  0.0 mm
16:32 53.2 °F /  11.8 °C 43.7 °F /  6.5 °C 30.2 in /  1022.2 hPa West 14 mph /  22.5 km/h 14 mph /  22.5 km/h 70 % 0 in /  0.0 mm
16:37 51.6 °F /  10.9 °C 45 °F /  7.2 °C 30.2 in /  1022.6 hPa WNW 10 mph /  16.1 km/h 19 mph /  30.6 km/h 78 % 0 in /  0.0 mm
16:42 50.7 °F /  10.4 °C 44.8 °F /  7.1 °C 30.2 in /  1022.6 hPa WNW 5 mph /  8.0 km/h 19 mph /  30.6 km/h 80 % 0.01 in /  0.3 mm
16:47 50.5 °F /  10.3 °C 45 °F /  7.2 °C 30.2 in /  1022.6 hPa West 2 mph /  3.2 km/h 19 mph /  30.6 km/h 81 % 0.01 in /  0.3 mm
16:52 50.4 °F /  10.2 °C 45.1 °F /  7.3 °C 30.2 in /  1022.9 hPa NW 2 mph /  3.2 km/h 19 mph /  30.6 km/h 82 % 0.01 in /  0.3 mm
16:57 50.4 °F /  10.2 °C 44.8 °F /  7.1 °C 30.2 in /  1022.6 hPa WNW 7 mph /  11.3 km/h 10 mph /  16.1 km/h 81 % 0.01 in /  0.3 mm
17:02 50.5 °F /  10.3 °C 44.6 °F /  7.0 °C 30.2 in /  1022.9 hPa WNW 9 mph /  14.5 km/h 10 mph /  16.1 km/h 80 % 0.01 in /  0.3 mm
17:12 51.1 °F /  10.6 °C 44.8 °F /  7.1 °C 30.2 in /  1022.9 hPa West 10 mph /  16.1 km/h 18 mph /  29.0 km/h 79 % 0.01 in /  0.3 mm
17:22 50.9 °F /  10.5 °C 45 °F /  7.2 °C 30.2 in /  1022.6 hPa WSW 5 mph /  8.0 km/h 18 mph /  29.0 km/h 80 % 0.01 in /  0.3 mm
17:27 50.5 °F /  10.3 °C 44.6 °F /  7.0 °C 30.2 in /  1022.9 hPa WNW 5 mph /  8.0 km/h 12 mph /  19.3 km/h 80 % 0.01 in /  0.3 mm
17:32 50.5 °F /  10.3 °C 45 °F /  7.2 °C 30.2 in /  1022.9 hPa WNW 5 mph /  8.0 km/h 12 mph /  19.3 km/h 81 % 0.01 in /  0.3 mm
17:37 50.4 °F /  10.2 °C 44.8 °F /  7.1 °C 30.2 in /  1022.9 hPa West 6 mph /  9.7 km/h 9 mph /  14.5 km/h 81 % 0.01 in /  0.3 mm
17:42 50.4 °F /  10.2 °C 44.8 °F /  7.1 °C 30.2 in /  1022.9 hPa WNW 5 mph /  8.0 km/h 9 mph /  14.5 km/h 81 % 0 in /  0.0 mm
17:47 50.5 °F /  10.3 °C 45 °F /  7.2 °C 30.2 in /  1023.2 hPa West 4 mph /  6.4 km/h 8 mph /  12.9 km/h 81 % 0 in /  0.0 mm
17:52 50.4 °F /  10.2 °C 45.1 °F /  7.3 °C 30.2 in /  1022.9 hPa WNW 1 mph /  1.6 km/h 8 mph /  12.9 km/h 82 % 0.01 in /  0.3 mm
17:57 50.4 °F /  10.2 °C 45.1 °F /  7.3 °C 30.2 in /  1023.2 hPa WNW 5 mph /  8.0 km/h 8 mph /  12.9 km/h 82 % 0.01 in /  0.3 mm
18:02 50.4 °F /  10.2 °C 45.1 °F /  7.3 °C 30.2 in /  1023.2 hPa West 3 mph /  4.8 km/h 8 mph /  12.9 km/h 82 % 0.01 in /  0.3 mm
18:12 50.4 °F /  10.2 °C 45.1 °F /  7.3 °C 30.2 in /  1023.2 hPa Calm   8 mph /  12.9 km/h 82 % 0.01 in /  0.3 mm
18:17 50.2 °F /  10.1 °C 45 °F /  7.2 °C 30.2 in /  1023.2 hPa WSW 3 mph /  4.8 km/h 8 mph /  12.9 km/h 82 % 0.01 in /  0.3 mm
18:22 50.2 °F /  10.1 °C 45 °F /  7.2 °C 30.2 in /  1023.2 hPa WNW 4 mph /  6.4 km/h 7 mph /  11.3 km/h 82 % 0.01 in /  0.3 mm
18:27 50.2 °F /  10.1 °C 45 °F /  7.2 °C 30.2 in /  1023.2 hPa West 2 mph /  3.2 km/h 7 mph /  11.3 km/h 82 % 0.01 in /  0.3 mm
18:32 50 °F /  10.0 °C 44.8 °F /  7.1 °C 30.2 in /  1023.2 hPa West 2 mph /  3.2 km/h 6 mph /  9.7 km/h 82 % 0.01 in /  0.3 mm
18:37 49.8 °F /  9.9 °C 44.6 °F /  7.0 °C 30.2 in /  1023.6 hPa West 5 mph /  8.0 km/h 6 mph /  9.7 km/h 82 % 0.01 in /  0.3 mm
18:42 49.8 °F /  9.9 °C 44.8 °F /  7.1 °C 30.2 in /  1023.6 hPa WNW 1 mph /  1.6 km/h 8 mph /  12.9 km/h 83 % 0.01 in /  0.3 mm
18:47 49.8 °F /  9.9 °C 44.8 °F /  7.1 °C 30.2 in /  1023.6 hPa WSW 4 mph /  6.4 km/h 7 mph /  11.3 km/h 83 % 0.01 in /  0.3 mm
18:52 49.8 °F /  9.9 °C 44.8 °F /  7.1 °C 30.2 in /  1023.6 hPa West 5 mph /  8.0 km/h 7 mph /  11.3 km/h 83 % 0 in /  0.0 mm
19:02 49.6 °F /  9.8 °C 44.8 °F /  7.1 °C 30.2 in /  1023.6 hPa West 4 mph /  6.4 km/h 11 mph /  17.7 km/h 83 % 0 in /  0.0 mm
19:07 49.6 °F /  9.8 °C 44.8 °F /  7.1 °C 30.2 in /  1023.9 hPa WSW 3 mph /  4.8 km/h 8 mph /  12.9 km/h 83 % 0 in /  0.0 mm
19:12 49.6 °F /  9.8 °C 44.8 °F /  7.1 °C 30.2 in /  1023.9 hPa WSW 3 mph /  4.8 km/h 8 mph /  12.9 km/h 83 % 0 in /  0.0 mm
19:17 49.6 °F /  9.8 °C 44.8 °F /  7.1 °C 30.2 in /  1023.9 hPa Calm   7 mph /  11.3 km/h 83 % 0 in /  0.0 mm
19:22 49.6 °F /  9.8 °C 44.8 °F /  7.1 °C 30.2 in /  1023.9 hPa WSW 1 mph /  1.6 km/h 7 mph /  11.3 km/h 83 % 0 in /  0.0 mm
19:32 49.3 °F /  9.6 °C 44.6 °F /  7.0 °C 30.2 in /  1023.9 hPa SW 1 mph /  1.6 km/h 5 mph /  8.0 km/h 84 % 0 in /  0.0 mm
19:37 49.3 °F /  9.6 °C 44.6 °F /  7.0 °C 30.3 in /  1024.3 hPa WSW 2 mph /  3.2 km/h 4 mph /  6.4 km/h 84 % 0 in /  0.0 mm
19:42 49.3 °F /  9.6 °C 44.6 °F /  7.0 °C 30.3 in /  1024.3 hPa WSW 2 mph /  3.2 km/h 4 mph /  6.4 km/h 84 % 0 in /  0.0 mm
19:47 49.1 °F /  9.5 °C 44.4 °F /  6.9 °C 30.3 in /  1024.3 hPa West 4 mph /  6.4 km/h 7 mph /  11.3 km/h 84 % 0 in /  0.0 mm
19:52 49.3 °F /  9.6 °C 44.4 °F /  6.9 °C 30.3 in /  1024.3 hPa WSW 5 mph /  8.0 km/h 7 mph /  11.3 km/h 83 % 0 in /  0.0 mm
19:57 49.3 °F /  9.6 °C 44.4 °F /  6.9 °C 30.3 in /  1024.3 hPa WSW 4 mph /  6.4 km/h 8 mph /  12.9 km/h 83 % 0 in /  0.0 mm
20:02 49.3 °F /  9.6 °C 44.4 °F /  6.9 °C 30.3 in /  1024.6 hPa West 2 mph /  3.2 km/h 8 mph /  12.9 km/h 83 % 0 in /  0.0 mm
20:12 48.9 °F /  9.4 °C 44.1 °F /  6.7 °C 30.3 in /  1024.6 hPa WSW 3 mph /  4.8 km/h 8 mph /  12.9 km/h 83 % 0 in /  0.0 mm
20:17 48.9 °F /  9.4 °C 44.1 °F /  6.7 °C 30.3 in /  1024.6 hPa WSW 3 mph /  4.8 km/h 7 mph /  11.3 km/h 83 % 0 in /  0.0 mm
20:22 48.9 °F /  9.4 °C 44.1 °F /  6.7 °C 30.3 in /  1024.6 hPa West 3 mph /  4.8 km/h 7 mph /  11.3 km/h 83 % 0 in /  0.0 mm
20:32 48.7 °F /  9.3 °C 44.1 °F /  6.7 °C 30.3 in /  1024.6 hPa West 3 mph /  4.8 km/h 7 mph /  11.3 km/h 84 % 0 in /  0.0 mm
20:42 48.6 °F /  9.2 °C 43.9 °F /  6.6 °C 30.3 in /  1024.6 hPa WNW 2 mph /  3.2 km/h 8 mph /  12.9 km/h 84 % 0 in /  0.0 mm
20:47 48.6 °F /  9.2 °C 43.9 °F /  6.6 °C 30.3 in /  1024.6 hPa SW 4 mph /  6.4 km/h 7 mph /  11.3 km/h 84 % 0 in /  0.0 mm
20:52 48.4 °F /  9.1 °C 44.1 °F /  6.7 °C 30.3 in /  1024.6 hPa WNW 4 mph /  6.4 km/h 7 mph /  11.3 km/h 85 % 0 in /  0.0 mm
21:02 48.6 °F /  9.2 °C 43.9 °F /  6.6 °C 30.3 in /  1024.6 hPa West 5 mph /  8.0 km/h 8 mph /  12.9 km/h 84 % 0 in /  0.0 mm
21:07 48.7 °F /  9.3 °C 44.4 °F /  6.9 °C 30.3 in /  1024.6 hPa West 6 mph /  9.7 km/h 8 mph /  12.9 km/h 85 % 0 in /  0.0 mm
21:12 48.9 °F /  9.4 °C 44.2 °F /  6.8 °C 30.3 in /  1024.6 hPa WSW 5 mph /  8.0 km/h 8 mph /  12.9 km/h 84 % 0 in /  0.0 mm
21:22 48.9 °F /  9.4 °C 44.2 °F /  6.8 °C 30.3 in /  1024.6 hPa West 6 mph /  9.7 km/h 12 mph /  19.3 km/h 84 % 0 in /  0.0 mm
21:27 48.9 °F /  9.4 °C 44.2 °F /  6.8 °C 30.3 in /  1024.9 hPa WSW 7 mph /  11.3 km/h 10 mph /  16.1 km/h 84 % 0 in /  0.0 mm
21:32 48.7 °F /  9.3 °C 44.4 °F /  6.9 °C 30.3 in /  1024.9 hPa SW 7 mph /  11.3 km/h 10 mph /  16.1 km/h 85 % 0 in /  0.0 mm
21:37 48.9 °F /  9.4 °C 44.6 °F /  7.0 °C 30.3 in /  1024.9 hPa West 4 mph /  6.4 km/h 10 mph /  16.1 km/h 85 % 0 in /  0.0 mm
21:42 48.7 °F /  9.3 °C 44.8 °F /  7.1 °C 30.3 in /  1024.9 hPa WSW 10 mph /  16.1 km/h 10 mph /  16.1 km/h 86 % 0 in /  0.0 mm
21:47 48.7 °F /  9.3 °C 45 °F /  7.2 °C 30.3 in /  1024.9 hPa West 3 mph /  4.8 km/h 10 mph /  16.1 km/h 87 % 0 in /  0.0 mm
21:52 48.7 °F /  9.3 °C 45 °F /  7.2 °C 30.3 in /  1024.9 hPa West 1 mph /  1.6 km/h 10 mph /  16.1 km/h 87 % 0 in /  0.0 mm
21:57 48.7 °F /  9.3 °C 44.8 °F /  7.1 °C 30.3 in /  1024.9 hPa SW 3 mph /  4.8 km/h 10 mph /  16.1 km/h 86 % 0 in /  0.0 mm
22:02 48.7 °F /  9.3 °C 45 °F /  7.2 °C 30.3 in /  1024.9 hPa SW 4 mph /  6.4 km/h 10 mph /  16.1 km/h 87 % 0 in /  0.0 mm
22:07 48.7 °F /  9.3 °C 45 °F /  7.2 °C 30.3 in /  1024.9 hPa WSW 7 mph /  11.3 km/h 8 mph /  12.9 km/h 87 % 0 in /  0.0 mm
22:12 48.7 °F /  9.3 °C 45 °F /  7.2 °C 30.3 in /  1024.9 hPa West 2 mph /  3.2 km/h 8 mph /  12.9 km/h 87 % 0 in /  0.0 mm
22:17 48.7 °F /  9.3 °C 45 °F /  7.2 °C 30.3 in /  1024.9 hPa WSW 2 mph /  3.2 km/h 8 mph /  12.9 km/h 87 % 0 in /  0.0 mm
22:22 48.9 °F /  9.4 °C 45.1 °F /  7.3 °C 30.3 in /  1024.9 hPa WSW 2 mph /  3.2 km/h 8 mph /  12.9 km/h 87 % 0 in /  0.0 mm
22:32 48.9 °F /  9.4 °C 45 °F /  7.2 °C 30.3 in /  1024.9 hPa WSW 4 mph /  6.4 km/h 7 mph /  11.3 km/h 86 % 0 in /  0.0 mm
22:37 49.1 °F /  9.5 °C 45.1 °F /  7.3 °C 30.3 in /  1024.9 hPa WSW 5 mph /  8.0 km/h 7 mph /  11.3 km/h 86 % 0 in /  0.0 mm
22:42 49.3 °F /  9.6 °C 45.3 °F /  7.4 °C 30.3 in /  1024.9 hPa WSW 3 mph /  4.8 km/h 7 mph /  11.3 km/h 86 % 0 in /  0.0 mm
22:47 49.3 °F /  9.6 °C 45.3 °F /  7.4 °C 30.3 in /  1024.9 hPa WSW 5 mph /  8.0 km/h 8 mph /  12.9 km/h 86 % 0 in /  0.0 mm
22:52 49.3 °F /  9.6 °C 45.3 °F /  7.4 °C 30.3 in /  1024.9 hPa West 2 mph /  3.2 km/h 8 mph /  12.9 km/h 86 % 0 in /  0.0 mm
22:57 49.3 °F /  9.6 °C 45.3 °F /  7.4 °C 30.3 in /  1024.9 hPa WSW 3 mph /  4.8 km/h 8 mph /  12.9 km/h 86 % 0 in /  0.0 mm
23:02 49.3 °F /  9.6 °C 45.3 °F /  7.4 °C 30.3 in /  1024.9 hPa WSW 2 mph /  3.2 km/h 8 mph /  12.9 km/h 86 % 0 in /  0.0 mm
23:12 49.3 °F /  9.6 °C 45.3 °F /  7.4 °C 30.3 in /  1024.9 hPa WSW 4 mph /  6.4 km/h 8 mph /  12.9 km/h 86 % 0 in /  0.0 mm
23:17 49.3 °F /  9.6 °C 45.3 °F /  7.4 °C 30.3 in /  1024.9 hPa WSW 6 mph /  9.7 km/h 7 mph /  11.3 km/h 86 % 0 in /  0.0 mm
23:22 49.3 °F /  9.6 °C 45.3 °F /  7.4 °C 30.3 in /  1024.9 hPa West 4 mph /  6.4 km/h 7 mph /  11.3 km/h 86 % 0 in /  0.0 mm
23:32 49.5 °F /  9.7 °C 45.5 °F /  7.5 °C 30.3 in /  1024.9 hPa SW 6 mph /  9.7 km/h 10 mph /  16.1 km/h 86 % 0 in /  0.0 mm
23:37 49.6 °F /  9.8 °C 45.3 °F /  7.4 °C 30.3 in /  1024.9 hPa West 6 mph /  9.7 km/h 12 mph /  19.3 km/h 85 % 0 in /  0.0 mm
23:42 49.6 °F /  9.8 °C 45.3 °F /  7.4 °C 30.3 in /  1024.9 hPa SW 3 mph /  4.8 km/h 12 mph /  19.3 km/h 85 % 0 in /  0.0 mm
23:47 49.6 °F /  9.8 °C 45.3 °F /  7.4 °C 30.3 in /  1024.9 hPa WSW 6 mph /  9.7 km/h 10 mph /  16.1 km/h 85 % 0 in /  0.0 mm
23:57 49.6 °F /  9.8 °C 45.3 °F /  7.4 °C 30.3 in /  1025.3 hPa SW 5 mph /  8.0 km/h 11 mph /  17.7 km/h 85 % 0 in /  0.0 mm
Meteo18
Compliments of Weather Underground - 4 mb

Script developed by  Jim McMurry - jmcmurry@mwt.net Adapted for the template by  Wim van der Kuil - Leuven-Template.eu

You find our weather info also at:

European Weather Network

Weather Underground

Equipment we use:

Weather-station
Davis Vue

Weather-program
Meteohub

Weather-server
Raspberry PI 2 B+

Provider
1 and 1

Davis Vue

Meteohub

Raspberry PI 2 B+

1 and 1